Time;durP1;ratioP1;P1;durP2;ratioP2;P2;SDS_P1;SDS_P2;PMS_P1;PMS_P2;Temp;Humidity;BMP_temperature;BMP_pressure;BME280_temperature;BME280_humidity;BME280_pressure;Samples;Min_cycle;Max_cycle;Signal;HPM_P1;HPM_P2
2022/04/06 00:00:19;;;;;;;21.95;7.32;;;;;;;10.14;78.46;100426.28;4700700;30;20056;-89
2022/04/06 00:02:46;;;;;;;25.23;7.63;;;;;;;10.09;78.43;100412.44;4699114;30;20059;-88
2022/04/06 00:05:11;;;;;;;23.33;7.55;;;;;;;10.14;78.57;100415.72;4711036;30;20495;-88
2022/04/06 00:07:37;;;;;;;22.23;7.40;;;;;;;10.08;78.26;100407.22;4712110;30;20064;-88
2022/04/06 00:10:04;;;;;;;21.55;7.13;;;;;;;10.04;78.46;100411.78;4713121;30;20056;-87
2022/04/06 00:12:30;;;;;;;16.35;6.88;;;;;;;10.05;78.53;100413.50;4697418;30;20885;-88
2022/04/06 00:14:55;;;;;;;21.73;7.55;;;;;;;10.04;78.52;100408.28;4717069;30;20115;-88
2022/04/06 00:17:21;;;;;;;15.85;7.00;;;;;;;10.04;78.54;100397.72;4710849;30;20099;-88
2022/04/06 00:19:46;;;;;;;16.85;6.43;;;;;;;10.01;78.01;100393.41;4699013;30;20086;-87
2022/04/06 00:22:11;;;;;;;22.13;6.95;;;;;;;10.09;78.28;100396.59;4699658;30;20465;-88
2022/04/06 00:24:37;;;;;;;18.90;7.45;;;;;;;10.08;78.43;100407.22;4714247;30;20053;-89
2022/04/06 00:27:02;;;;;;;19.55;6.88;;;;;;;10.07;78.58;100403.72;4696910;30;20045;-88
2022/04/06 00:29:27;;;;;;;21.30;6.03;;;;;;;10.10;77.97;100402.72;4699181;30;20092;-88
2022/04/06 00:31:53;;;;;;;22.05;6.55;;;;;;;9.99;77.94;100397.94;4693690;30;20112;-88
2022/04/06 00:34:18;;;;;;;15.82;6.32;;;;;;;10.06;78.39;100402.00;4699356;30;20064;-89
2022/04/06 00:36:44;;;;;;;21.52;6.88;;;;;;;10.07;78.39;100394.91;4698910;30;20127;-88
2022/04/06 00:39:09;;;;;;;18.70;6.95;;;;;;;10.01;78.14;100398.69;4711399;30;20036;-89
2022/04/06 00:41:35;;;;;;;24.55;7.78;;;;;;;10.03;78.29;100396.03;4695213;30;20426;-88
2022/04/06 00:44:13;;;;;;;13.63;5.50;;;;;;;9.96;78.19;100392.78;4699196;30;20045;-89
2022/04/06 00:46:39;;;;;;;15.55;6.22;;;;;;;9.95;78.41;100394.56;4698325;30;20087;-88
2022/04/06 00:49:10;;;;;;;22.23;6.70;;;;;;;9.99;78.39;100387.38;4713189;30;20457;-89
2022/04/06 00:51:36;;;;;;;18.02;6.40;;;;;;;9.92;78.31;100386.75;4714736;30;20051;-89
2022/04/06 00:54:02;;;;;;;22.42;7.32;;;;;;;9.93;78.30;100390.25;4712008;30;20040;-89
2022/04/06 00:56:30;;;;;;;21.70;6.40;;;;;;;9.98;78.11;100388.31;4697790;30;20045;-87
2022/04/06 00:58:56;;;;;;;15.90;6.53;;;;;;;9.92;78.29;100383.28;4710241;30;20064;-88
2022/04/06 01:01:21;;;;;;;19.42;5.72;;;;;;;9.97;78.24;100381.28;4698893;30;20064;-88
2022/04/06 01:03:47;;;;;;;17.40;6.93;;;;;;;9.87;78.42;100393.19;4716453;30;20459;-88
2022/04/06 01:06:12;;;;;;;14.40;5.68;;;;;;;9.95;78.37;100375.22;4692568;30;20530;-88
2022/04/06 01:08:37;;;;;;;18.58;6.10;;;;;;;9.93;78.23;100377.06;4710053;30;20345;-89
2022/04/06 01:11:03;;;;;;;17.95;6.30;;;;;;;9.97;78.05;100368.94;4697151;30;20499;-88
2022/04/06 01:13:29;;;;;;;18.23;6.55;;;;;;;9.91;78.31;100358.66;4694426;30;20126;-88
2022/04/06 01:15:54;;;;;;;21.35;5.40;;;;;;;9.93;78.35;100363.84;4711790;30;20162;-88
2022/04/06 01:18:20;;;;;;;19.27;5.68;;;;;;;9.94;78.15;100368.22;4700809;30;20113;-88
2022/04/06 01:20:45;;;;;;;16.35;5.57;;;;;;;9.89;77.79;100357.03;4724198;30;20033;-88
2022/04/06 01:23:10;;;;;;;17.80;6.43;;;;;;;9.90;77.99;100358.72;4697737;30;20051;-88
2022/04/06 01:25:38;;;;;;;15.00;5.03;;;;;;;9.92;77.69;100362.16;4699237;30;20044;-88
2022/04/06 01:28:04;;;;;;;13.45;5.43;;;;;;;9.93;77.83;100361.22;4698975;30;20083;-88
2022/04/06 01:30:29;;;;;;;16.17;5.22;;;;;;;9.88;77.71;100352.66;4712841;30;20056;-88
2022/04/06 01:32:57;;;;;;;16.30;5.40;;;;;;;9.90;78.11;100361.38;4713192;30;20406;-88
2022/04/06 01:35:23;;;;;;;19.27;6.47;;;;;;;9.73;77.97;100355.97;4696667;30;20083;-88
2022/04/06 01:37:48;;;;;;;14.73;5.18;;;;;;;9.84;77.82;100351.06;4716280;30;20111;-89
2022/04/06 01:40:14;;;;;;;16.85;5.10;;;;;;;9.80;77.91;100345.09;4703032;30;20036;-88
2022/04/06 01:42:39;;;;;;;18.15;5.53;;;;;;;9.86;77.66;100352.72;4713097;30;20068;-88
2022/04/06 01:45:05;;;;;;;19.15;5.13;;;;;;;9.83;77.91;100357.28;4698252;30;20090;-88
2022/04/06 01:47:30;;;;;;;13.88;4.78;;;;;;;9.84;77.83;100358.97;4695078;30;20573;-88
2022/04/06 01:52:40;;;;;;;16.83;5.03;;;;;;;9.81;77.26;100345.94;4716030;30;20491;-88
2022/04/06 01:55:11;;;;;;;14.15;4.63;;;;;;;9.82;77.64;100339.72;4714421;30;20128;-88
2022/04/06 01:57:36;;;;;;;17.38;5.05;;;;;;;9.77;77.59;100339.94;4696475;30;20524;-89
2022/04/06 02:00:06;;;;;;;17.92;4.55;;;;;;;9.80;77.48;100344.25;4711017;30;20062;-89
2022/04/06 02:02:31;;;;;;;16.60;5.68;;;;;;;9.81;77.35;100353.88;4697121;30;20073;-88
2022/04/06 02:04:59;;;;;;;15.40;4.05;;;;;;;9.77;77.52;100352.28;4697249;30;20127;-89
2022/04/06 02:07:25;;;;;;;12.88;4.40;;;;;;;9.77;77.47;100339.09;4696510;30;20037;-87
2022/04/06 02:09:50;;;;;;;12.68;4.65;;;;;;;9.80;77.22;100347.72;4697171;30;20044;-89
2022/04/06 02:12:16;;;;;;;16.23;4.55;;;;;;;9.75;77.26;100333.88;4697559;30;20037;-89
2022/04/06 02:14:42;;;;;;;18.30;4.65;;;;;;;9.78;76.77;100338.16;4701237;30;20106;-88
2022/04/06 02:17:09;;;;;;;12.45;4.10;;;;;;;9.73;76.81;100332.22;4700296;30;20082;-89
2022/04/06 02:19:36;;;;;;;11.05;3.83;;;;;;;9.79;76.78;100331.94;4697432;30;20384;-88
2022/04/06 02:22:04;;;;;;;12.63;4.15;;;;;;;9.77;77.19;100334.66;4699731;30;20039;-87
2022/04/06 02:24:30;;;;;;;22.10;5.05;;;;;;;9.74;76.88;100329.50;4699925;30;20307;-88
2022/04/06 02:26:55;;;;;;;10.15;3.67;;;;;;;9.74;76.41;100326.00;4717321;30;20036;-89
2022/04/06 02:29:20;;;;;;;14.02;4.07;;;;;;;9.66;76.92;100321.09;4701757;30;20577;-88
2022/04/06 02:31:45;;;;;;;15.40;4.80;;;;;;;9.70;76.38;100322.69;4698337;30;20045;-88
2022/04/06 02:34:11;;;;;;;14.85;3.90;;;;;;;9.73;76.76;100326.94;4700019;30;20037;-88
2022/04/06 02:36:36;;;;;;;9.52;3.60;;;;;;;9.74;76.52;100328.66;4714887;30;20503;-88
2022/04/06 02:39:02;;;;;;;12.40;3.90;;;;;;;9.71;76.23;100319.97;4716313;30;20040;-88
2022/04/06 02:41:28;;;;;;;16.45;4.22;;;;;;;9.71;76.04;100319.97;4698866;30;20036;-89
2022/04/06 02:43:54;;;;;;;15.02;3.67;;;;;;;9.66;76.15;100318.47;4698880;30;20158;-88
2022/04/06 02:46:19;;;;;;;11.15;4.35;;;;;;;9.61;76.15;100304.59;4699453;30;20534;-88
2022/04/06 02:48:45;;;;;;;16.05;4.15;;;;;;;9.67;76.08;100322.81;4713792;30;20506;-89
2022/04/06 02:51:10;;;;;;;11.80;3.33;;;;;;;9.60;75.74;100321.34;4702167;30;20602;-89
2022/04/06 02:53:36;;;;;;;9.65;3.38;;;;;;;9.60;76.00;100316.06;4698486;30;20372;-89
2022/04/06 02:56:01;;;;;;;9.73;4.05;;;;;;;9.55;76.03;100308.34;4699176;30;20036;-89
2022/04/06 02:58:26;;;;;;;13.48;3.78;;;;;;;9.57;76.09;100317.09;4714591;30;20499;-89
2022/04/06 03:00:54;;;;;;;14.57;3.85;;;;;;;9.55;75.95;100304.88;4714986;30;20080;-88
2022/04/06 03:03:19;;;;;;;9.90;3.83;;;;;;;9.57;75.69;100303.03;4716765;30;20032;-89
2022/04/06 03:05:45;;;;;;;15.38;3.80;;;;;;;9.47;75.91;100294.66;4714566;30;20840;-89
2022/04/06 03:08:10;;;;;;;11.50;3.28;;;;;;;9.53;75.37;100302.31;4715286;30;20084;-88
2022/04/06 03:10:36;;;;;;;6.97;2.90;;;;;;;9.52;75.30;100291.81;4711989;30;20024;-88
2022/04/06 03:13:01;;;;;;;12.35;3.95;;;;;;;9.43;75.98;100287.81;4714734;30;20042;-89
2022/04/06 03:15:27;;;;;;;13.35;3.92;;;;;;;9.44;75.53;100286.88;4719149;30;20040;-88
2022/04/06 03:17:52;;;;;;;13.48;3.63;;;;;;;9.38;75.38;100287.16;4715454;30;20041;-88
2022/04/06 03:20:17;;;;;;;8.57;2.92;;;;;;;9.42;75.24;100291.38;4697870;30;20152;-88
2022/04/06 03:22:43;;;;;;;12.95;3.00;;;;;;;9.44;75.03;100287.72;4700637;30;20095;-88
2022/04/06 03:25:09;;;;;;;7.97;3.03;;;;;;;9.48;74.75;100282.31;4717558;30;20033;-88
2022/04/06 03:27:35;;;;;;;13.50;3.17;;;;;;;9.43;75.04;100275.47;4699485;30;20542;-89
2022/04/06 03:30:05;;;;;;;7.07;3.00;;;;;;;9.45;74.64;100276.25;4713322;30;20142;-89
2022/04/06 03:32:30;;;;;;;14.32;3.60;;;;;;;9.42;74.60;100265.84;4715699;30;20036;-87
2022/04/06 03:34:56;;;;;;;10.48;3.47;;;;;;;9.41;74.81;100268.53;4713078;30;20074;-88
2022/04/06 03:37:21;;;;;;;12.15;3.25;;;;;;;9.46;74.65;100271.81;4698345;30;20399;-89
2022/04/06 03:39:47;;;;;;;11.95;2.97;;;;;;;9.45;74.01;100256.94;4718327;30;20028;-89
2022/04/06 03:42:12;;;;;;;8.73;2.72;;;;;;;9.45;73.99;100256.94;4700285;30;20037;-88
2022/04/06 03:44:37;;;;;;;18.15;3.10;;;;;;;9.41;73.61;100255.34;4698562;30;20036;-88
2022/04/06 03:47:03;;;;;;;9.07;3.20;;;;;;;9.45;73.55;100255.13;4724873;30;20041;-88
2022/04/06 03:49:28;;;;;;;11.60;3.42;;;;;;;9.43;73.22;100237.69;4700337;30;20051;-89
2022/04/06 03:51:53;;;;;;;16.27;3.38;;;;;;;9.37;72.94;100243.22;4699957;30;20132;-88
2022/04/06 03:54:19;;;;;;;11.80;3.13;;;;;;;9.44;72.83;100249.94;4713372;30;20530;-89
2022/04/06 03:56:44;;;;;;;13.50;3.10;;;;;;;9.41;73.52;100244.78;4701942;30;20048;-88
2022/04/06 03:59:10;;;;;;;14.77;3.10;;;;;;;9.46;73.55;100250.72;4697597;30;20056;-88
2022/04/06 04:01:35;;;;;;;8.18;2.63;;;;;;;9.44;72.62;100250.78;4715960;30;20036;-89
2022/04/06 04:04:02;;;;;;;8.32;2.90;;;;;;;9.41;72.97;100244.78;4698719;30;20044;-89
2022/04/06 04:06:27;;;;;;;9.57;2.65;;;;;;;9.44;73.02;100255.22;4699252;30;20410;-88
2022/04/06 04:08:53;;;;;;;10.88;3.50;;;;;;;9.41;71.99;100244.78;4695880;30;20049;-89
2022/04/06 04:11:18;;;;;;;12.80;3.22;;;;;;;9.46;72.29;100250.72;4700012;30;20074;-89
2022/04/06 04:13:43;;;;;;;8.18;2.53;;;;;;;9.44;72.61;100250.78;4697978;30;20081;-88
2022/04/06 04:16:09;;;;;;;8.50;2.63;;;;;;;9.44;71.69;100249.94;4698185;30;20076;-89
2022/04/06 04:18:34;;;;;;;13.30;2.88;;;;;;;9.44;72.19;100245.50;4715539;30;20573;-89
2022/04/06 04:23:43;;;;;;;7.55;2.25;;;;;;;9.47;72.16;100248.97;4716274;30;20110;-89
2022/04/06 04:26:08;;;;;;;12.60;2.53;;;;;;;9.45;72.97;100243.72;4702093;30;20044;-89
2022/04/06 04:28:34;;;;;;;7.78;2.50;;;;;;;9.45;72.89;100233.19;4713930;30;20036;-88
2022/04/06 04:30:59;;;;;;;10.63;2.88;;;;;;;9.33;73.14;100218.78;4696070;30;20076;-89
2022/04/06 04:33:24;;;;;;;16.63;3.50;;;;;;;9.50;73.10;100235.59;4713139;30;20033;-89
2022/04/06 04:35:50;;;;;;;14.57;3.03;;;;;;;9.50;73.32;100228.53;4695510;30;20491;-88
2022/04/06 04:38:15;;;;;;;9.68;3.38;;;;;;;9.45;73.66;100234.03;4712235;30;20261;-88
2022/04/06 04:40:40;;;;;;;15.23;3.45;;;;;;;9.53;73.66;100238.13;4700775;30;20041;-88
2022/04/06 04:43:05;;;;;;;13.95;4.18;;;;;;;9.51;74.38;100232.03;4712099;30;20266;-87
2022/04/06 04:45:31;;;;;;;10.25;4.05;;;;;;;9.51;74.11;100229.41;4702272;30;20098;-89
2022/04/06 04:47:57;;;;;;;13.20;4.07;;;;;;;9.50;74.30;100227.69;4710091;30;20036;-87
2022/04/06 04:50:23;;;;;;;14.90;4.70;;;;;;;9.48;74.57;100224.28;4696949;30;20123;-88
2022/04/06 04:52:48;;;;;;;13.43;4.28;;;;;;;9.53;74.57;100232.84;4699542;30;20117;-88
2022/04/06 04:55:14;;;;;;;15.07;4.22;;;;;;;9.39;74.52;100220.28;4697688;30;20886;-88
2022/04/06 04:57:39;;;;;;;14.00;4.18;;;;;;;9.52;74.97;100220.59;4695384;30;20388;-88
2022/04/06 05:00:08;;;;;;;18.00;5.88;;;;;;;9.50;75.11;100219.78;4699743;30;20037;-88
2022/04/06 05:02:33;;;;;;;13.10;4.93;;;;;;;9.48;74.97;100209.31;4696255;30;20043;-88
2022/04/06 05:04:59;;;;;;;13.68;4.57;;;;;;;9.55;74.41;100215.16;4700576;30;20041;-88
2022/04/06 05:07:24;;;;;;;18.50;5.72;;;;;;;9.53;74.74;100217.88;4710215;30;20078;-88
2022/04/06 05:09:50;;;;;;;13.48;4.65;;;;;;;9.53;74.86;100202.03;4703416;30;20064;-88
2022/04/06 05:12:15;;;;;;;20.08;6.28;;;;;;;9.48;75.07;100217.22;4715016;30;20120;-87
2022/04/06 05:14:41;;;;;;;14.93;5.10;;;;;;;9.53;74.35;100209.09;4714466;30;20490;-88
2022/04/06 05:17:07;;;;;;;17.20;5.25;;;;;;;9.58;74.51;100207.09;4696246;30;20072;-88
2022/04/06 05:19:32;;;;;;;10.07;5.25;;;;;;;9.54;74.81;100205.53;4696727;30;20036;-89
2022/04/06 05:21:59;;;;;;;12.70;4.47;;;;;;;9.51;74.15;100213.56;4710347;30;20071;-88
2022/04/06 05:24:25;;;;;;;16.08;5.95;;;;;;;9.58;74.32;100215.00;4708981;30;20107;-86
2022/04/06 05:26:50;;;;;;;11.57;4.15;;;;;;;9.55;74.18;100205.44;4702982;30;20551;-88
2022/04/06 05:29:15;;;;;;;13.82;4.75;;;;;;;9.59;74.03;100207.00;4699173;30;20122;-88
2022/04/06 05:31:41;;;;;;;9.20;4.15;;;;;;;9.56;73.77;100199.25;4712913;30;20048;-88
2022/04/06 05:34:06;;;;;;;14.70;4.40;;;;;;;9.58;73.88;100192.13;4711299;30;20088;-87
2022/04/06 05:36:31;;;;;;;17.15;4.20;;;;;;;9.51;73.67;100190.66;4711129;30;20577;-89
2022/04/06 05:38:57;;;;;;;15.63;4.22;;;;;;;9.62;74.03;100198.13;4696009;30;20052;-88
2022/04/06 05:41:22;;;;;;;10.05;3.75;;;;;;;9.59;73.62;100196.47;4713587;30;20049;-88
2022/04/06 05:43:48;;;;;;;13.57;3.67;;;;;;;9.60;73.10;100194.66;4695296;30;20493;-88
2022/04/06 05:46:13;;;;;;;22.73;4.43;;;;;;;9.60;73.38;100192.03;4711586;30;20041;-88
2022/04/06 05:48:38;;;;;;;11.52;3.45;;;;;;;9.55;73.46;100181.69;4697673;30;20560;-89
2022/04/06 05:51:05;;;;;;;11.45;3.35;;;;;;;9.59;72.84;100187.69;4711681;30;20041;-88
2022/04/06 05:53:30;;;;;;;14.27;4.35;;;;;;;9.64;73.11;100185.69;4711691;30;20076;-88
2022/04/06 05:55:55;;;;;;;13.18;3.88;;;;;;;9.66;72.10;100195.25;4712929;30;20543;-89
2022/04/06 05:58:21;;;;;;;12.60;3.65;;;;;;;9.68;72.82;100187.25;4696738;30;20025;-88
2022/04/06 06:00:46;;;;;;;10.02;3.63;;;;;;;9.66;72.69;100187.34;4712127;30;20071;-89
2022/04/06 06:03:12;;;;;;;13.30;3.95;;;;;;;9.64;72.57;100199.72;4695231;30;20600;-88
2022/04/06 06:05:37;;;;;;;14.65;3.10;;;;;;;9.68;72.39;100192.53;4694231;30;20033;-89
2022/04/06 06:08:03;;;;;;;10.35;3.17;;;;;;;9.69;71.92;100197.72;4708511;30;20168;-88
2022/04/06 06:10:28;;;;;;;5.15;2.80;;;;;;;9.74;72.05;100192.25;4695676;30;20037;-89
2022/04/06 06:12:53;;;;;;;11.18;3.05;;;;;;;9.75;71.75;100208.97;4696067;30;20060;-88
2022/04/06 06:15:19;;;;;;;10.48;2.63;;;;;;;9.76;70.91;100193.03;4699093;30;20036;-88
2022/04/06 06:17:47;;;;;;;10.73;2.53;;;;;;;9.80;71.20;100199.03;4696465;30;20608;-88
2022/04/06 06:20:12;;;;;;;9.38;3.15;;;;;;;9.76;70.75;100203.59;4711413;30;20595;-88
2022/04/06 06:22:38;;;;;;;16.02;2.28;;;;;;;9.81;69.60;100198.09;4714426;30;20102;-89
2022/04/06 06:25:04;;;;;;;7.53;2.45;;;;;;;9.84;68.66;100203.22;4710088;30;20045;-88
2022/04/06 06:27:30;;;;;;;10.07;2.25;;;;;;;9.93;68.60;100200.13;4700630;30;20044;-88
2022/04/06 06:29:55;;;;;;;5.95;2.42;;;;;;;9.96;67.56;100192.94;4698477;30;20056;-89
2022/04/06 06:32:20;;;;;;;6.95;1.98;;;;;;;9.93;66.57;100198.38;4699314;30;20029;-89
2022/04/06 06:34:45;;;;;;;6.20;2.28;;;;;;;9.99;65.98;100199.88;4712441;30;20033;-90
2022/04/06 06:37:11;;;;;;;4.43;1.48;;;;;;;10.03;66.03;100188.25;4699318;30;20063;-88
2022/04/06 06:39:37;;;;;;;5.28;1.90;;;;;;;9.97;65.36;100205.22;4698427;30;20491;-90
2022/04/06 06:42:04;;;;;;;6.97;2.20;;;;;;;10.03;65.09;100200.59;4711932;30;20040;-88
2022/04/06 06:44:29;;;;;;;3.67;1.70;;;;;;;10.08;65.47;100204.72;4709526;30;20044;-89
2022/04/06 06:46:54;;;;;;;7.28;1.70;;;;;;;10.02;65.56;100186.50;4713021;30;20029;-89
2022/04/06 06:49:20;;;;;;;10.10;1.88;;;;;;;9.97;65.34;100180.59;4711076;30;20064;-89
2022/04/06 06:51:45;;;;;;;4.88;1.42;;;;;;;10.06;65.48;100188.06;4702346;30;20040;-89
2022/04/06 06:54:11;;;;;;;4.20;1.30;;;;;;;10.11;64.99;100187.84;4710529;30;20470;-89
2022/04/06 06:56:37;;;;;;;4.75;1.45;;;;;;;10.11;64.69;100187.84;4721930;30;20266;-90
2022/04/06 06:59:02;;;;;;;11.90;1.98;;;;;;;10.13;64.42;100184.22;4710213;30;20037;-89
2022/04/06 07:01:28;;;;;;;2.95;0.90;;;;;;;10.25;63.75;100168.72;4698509;30;20185;-88
2022/04/06 07:03:53;;;;;;;5.15;0.88;;;;;;;10.26;63.09;100176.59;4695205;30;20590;-90
2022/04/06 07:06:18;;;;;;;5.57;1.35;;;;;;;10.30;63.14;100182.53;4713036;30;20049;-89
2022/04/06 07:08:44;;;;;;;5.68;1.23;;;;;;;10.36;62.98;100184.91;4713505;30;20185;-89
2022/04/06 07:11:09;;;;;;;3.22;1.23;;;;;;;10.31;63.54;100179.84;4700596;30;20395;-89
2022/04/06 07:13:35;;;;;;;7.28;1.30;;;;;;;10.27;62.95;100182.72;4699593;30;20037;-89
2022/04/06 07:16:00;;;;;;;5.03;1.23;;;;;;;10.28;64.03;100187.91;4717794;30;20592;-88
2022/04/06 07:18:25;;;;;;;6.63;1.33;;;;;;;10.28;64.11;100176.50;4703173;30;20563;-89
2022/04/06 07:20:51;;;;;;;6.45;1.58;;;;;;;10.27;63.91;100183.56;4712440;30;20234;-90
2022/04/06 07:23:16;;;;;;;6.05;1.98;;;;;;;10.14;65.19;100175.34;4717436;30;20115;-90
2022/04/06 07:25:41;;;;;;;8.32;2.20;;;;;;;10.12;65.64;100164.03;4718033;30;20086;-90
2022/04/06 07:28:07;;;;;;;6.25;1.90;;;;;;;10.10;66.15;100155.28;4700979;30;20029;-90
2022/04/06 07:30:32;;;;;;;5.97;2.40;;;;;;;10.12;67.55;100157.88;4716935;30;20094;-90
2022/04/06 07:32:58;;;;;;;7.22;2.60;;;;;;;10.11;67.65;100159.63;4703017;30;20071;-88
2022/04/06 07:35:24;;;;;;;9.75;2.63;;;;;;;10.02;68.11;100161.88;4713068;30;20047;-89
2022/04/06 07:37:50;;;;;;;9.88;2.78;;;;;;;10.03;69.36;100168.91;4720627;30;20079;-88
2022/04/06 07:40:19;;;;;;;11.18;2.83;;;;;;;9.94;68.95;100151.72;4720417;30;20037;-90
2022/04/06 07:42:46;;;;;;;7.10;3.28;;;;;;;9.92;69.86;100153.56;4699813;30;20444;-88
2022/04/06 07:45:14;;;;;;;7.80;2.55;;;;;;;10.04;69.37;100163.53;4698005;30;20033;-89
2022/04/06 07:47:40;;;;;;;8.43;3.17;;;;;;;9.95;70.02;100138.41;4698175;30;20041;-89
2022/04/06 07:50:07;;;;;;;10.07;3.55;;;;;;;10.01;69.84;100149.63;4714727;30;20396;-90
2022/04/06 07:52:33;;;;;;;8.25;2.83;;;;;;;10.05;69.63;100140.63;4721019;30;20465;-89
2022/04/06 07:55:00;;;;;;;7.90;2.60;;;;;;;10.22;69.43;100157.34;4697262;30;20549;-89
2022/04/06 07:57:26;;;;;;;5.85;2.80;;;;;;;10.32;69.30;100130.50;4710522;30;20502;-89
2022/04/06 07:59:53;;;;;;;7.47;3.42;;;;;;;10.43;68.82;100136.09;4714346;30;20032;-89
2022/04/06 08:02:18;;;;;;;4.93;2.25;;;;;;;10.67;68.79;100131.31;4703148;30;20044;-90
2022/04/06 08:04:44;;;;;;;10.73;3.00;;;;;;;10.78;68.65;100120.22;4700021;30;20045;-88
2022/04/06 08:07:09;;;;;;;10.13;3.20;;;;;;;10.70;67.79;100110.03;4716162;30;20501;-89
2022/04/06 08:09:35;;;;;;;8.15;3.17;;;;;;;10.70;67.44;100118.81;4698810;30;20028;-89
2022/04/06 08:12:01;;;;;;;9.73;2.95;;;;;;;10.75;68.39;100123.00;4715701;30;20112;-88
2022/04/06 08:14:27;;;;;;;9.95;3.90;;;;;;;10.71;69.04;100123.16;4714073;30;20501;-89
2022/04/06 08:16:55;;;;;;;8.65;2.83;;;;;;;10.68;67.97;100131.25;4716356;30;20036;-88
2022/04/06 08:19:20;;;;;;;7.53;2.50;;;;;;;10.66;68.23;100127.81;4696108;30;20036;-89
2022/04/06 08:21:46;;;;;;;8.00;2.97;;;;;;;10.65;67.82;100142.00;4694676;30;20059;-88
2022/04/06 08:24:14;;;;;;;8.63;2.88;;;;;;;10.59;68.59;100137.03;4717189;30;20055;-90
2022/04/06 08:26:39;;;;;;;8.73;2.50;;;;;;;10.44;68.75;100138.66;4714902;30;20075;-88
2022/04/06 08:29:04;;;;;;;5.90;2.67;;;;;;;10.50;69.25;100142.78;4694327;30;20143;-89
2022/04/06 08:31:30;;;;;;;7.78;2.35;;;;;;;10.47;68.91;100137.63;4696371;30;20049;-90
2022/04/06 08:33:55;;;;;;;9.80;2.97;;;;;;;10.47;68.45;100146.41;4714607;30;20029;-89
2022/04/06 08:36:23;;;;;;;12.15;3.47;;;;;;;10.42;69.07;100137.88;4701235;30;20512;-90
2022/04/06 08:38:48;;;;;;;8.52;3.03;;;;;;;10.34;68.93;100147.13;4713768;30;20568;-88
2022/04/06 08:41:15;;;;;;;6.70;2.40;;;;;;;10.37;68.97;100129.31;4715481;30;20036;-89
2022/04/06 08:43:41;;;;;;;6.18;2.40;;;;;;;10.27;68.79;100135.16;4696498;30;20071;-89
2022/04/06 08:46:12;;;;;;;7.05;2.60;;;;;;;10.34;69.34;100136.53;4718298;30;20033;-88
2022/04/06 08:48:38;;;;;;;6.95;2.92;;;;;;;10.36;69.83;100129.41;4718971;30;20750;-89
2022/04/06 08:51:07;;;;;;;8.65;2.78;;;;;;;10.43;69.54;100130.81;4714669;30;20520;-88
2022/04/06 08:53:38;;;;;;;8.13;2.90;;;;;;;10.47;68.71;100119.16;4724886;30;20037;-90
2022/04/06 08:56:03;;;;;;;7.07;2.55;;;;;;;10.57;69.28;100119.53;4704160;30;20177;-90
2022/04/06 08:58:29;;;;;;;5.47;2.70;;;;;;;10.61;67.83;100098.13;4700189;30;20549;-89
2022/04/06 09:00:54;;;;;;;8.90;3.20;;;;;;;10.75;68.22;100120.38;4700785;30;20348;-90
2022/04/06 09:03:21;;;;;;;7.40;2.78;;;;;;;10.69;68.73;100127.69;4713176;30;20037;-89
2022/04/06 09:05:59;;;;;;;9.50;3.20;;;;;;;10.69;68.28;100126.81;4731006;30;20521;-89
2022/04/06 09:08:35;;;;;;;6.65;2.78;;;;;;;10.50;69.15;100120.78;4697398;30;20517;-89
2022/04/06 09:11:12;;;;;;;6.88;2.97;;;;;;;10.57;69.29;100130.09;4715376;30;20036;-89
2022/04/06 09:13:43;;;;;;;11.23;3.00;;;;;;;10.57;70.17;100132.75;4713816;30;20135;-89
2022/04/06 09:16:13;;;;;;;7.50;3.03;;;;;;;10.65;70.15;100125.28;4698449;30;20498;-89
2022/04/06 09:18:41;;;;;;;7.93;2.42;;;;;;;10.75;69.45;100131.78;4695377;30;20037;-89
2022/04/06 09:21:09;;;;;;;8.73;3.40;;;;;;;10.68;70.42;100125.97;4699993;30;20032;-90
2022/04/06 09:23:34;;;;;;;11.25;3.13;;;;;;;10.66;70.36;100113.75;4716746;30;20037;-90
2022/04/06 09:26:08;;;;;;;6.88;3.33;;;;;;;10.53;70.34;100128.53;4715033;30;20048;-89
2022/04/06 09:28:41;;;;;;;11.40;3.25;;;;;;;10.40;71.02;100129.19;4713621;30;20491;-89
2022/04/06 09:31:08;;;;;;;6.53;3.08;;;;;;;10.52;72.16;100116.25;4715734;30;20086;-90
2022/04/06 09:33:34;;;;;;;7.65;3.33;;;;;;;10.66;71.61;100122.53;4712248;30;20206;-89
2022/04/06 09:35:59;;;;;;;7.22;3.10;;;;;;;10.54;71.82;100125.84;4701357;30;20116;-89
2022/04/06 09:38:27;;;;;;;7.45;3.80;;;;;;;10.62;70.34;100114.84;4700562;30;20128;-89
2022/04/06 09:41:19;;;;;;;7.30;3.00;;;;;;;10.62;69.99;100115.69;4697648;30;20087;-88
2022/04/06 09:43:50;;;;;;;5.50;3.23;;;;;;;10.77;70.22;100123.75;4693510;30;20395;-88
2022/04/06 09:49:20;;;;;;;4.70;2.65;;;;;;;10.79;69.50;100116.63;4715725;30;20068;-88
2022/04/06 09:51:50;;;;;;;10.52;3.30;;;;;;;10.80;69.83;100121.81;4717253;30;20045;-89
2022/04/06 09:54:16;;;;;;;7.53;2.80;;;;;;;10.63;70.05;100105.97;4697920;30;20124;-89
2022/04/06 09:56:44;;;;;;;6.40;3.03;;;;;;;10.78;69.85;100113.13;4711180;30;20037;-89
2022/04/06 09:59:12;;;;;;;8.35;3.13;;;;;;;10.87;70.27;100110.00;4719223;30;20099;-88
2022/04/06 10:01:41;;;;;;;5.80;3.20;;;;;;;10.77;70.50;100110.53;4695865;30;20037;-89
2022/04/06 10:04:10;;;;;;;4.68;2.88;;;;;;;10.83;70.91;100104.97;4714452;30;20043;-88
2022/04/06 10:06:36;;;;;;;10.45;3.30;;;;;;;10.79;70.53;100095.47;4695221;30;20103;-89
2022/04/06 10:09:07;;;;;;;5.63;2.35;;;;;;;10.78;70.06;100113.13;4694474;30;20117;-90
2022/04/06 10:11:38;;;;;;;6.72;3.33;;;;;;;10.77;70.11;100108.78;4696082;30;20135;-88
2022/04/06 10:14:05;;;;;;;10.93;3.40;;;;;;;10.81;70.81;100101.53;4693232;30;20049;-88
2022/04/06 10:16:31;;;;;;;11.70;3.42;;;;;;;10.85;71.38;100098.63;4696802;30;20483;-88
2022/04/06 10:18:57;;;;;;;9.13;3.08;;;;;;;10.86;70.66;100100.34;4710733;30;20029;-90
2022/04/06 10:21:38;;;;;;;4.40;3.00;;;;;;;10.81;71.87;100104.16;4722955;30;20062;-89
2022/04/06 10:24:17;;;;;;;5.57;2.80;;;;;;;10.75;71.07;100096.56;4728140;30;20044;-88
2022/04/06 10:27:04;;;;;;;9.63;3.40;;;;;;;10.84;71.35;100093.44;4697050;30;20445;-90
2022/04/06 10:29:30;;;;;;;6.80;2.95;;;;;;;10.74;70.88;100090.44;4700484;30;20459;-89
2022/04/06 10:31:56;;;;;;;9.32;2.58;;;;;;;10.82;70.86;100095.28;4702040;30;20044;-89
2022/04/06 10:34:27;;;;;;;6.35;3.10;;;;;;;10.69;71.66;100095.97;4714270;30;20033;-89
2022/04/06 10:37:12;;;;;;;4.00;2.60;;;;;;;10.74;71.00;100095.72;4711770;30;20367;-87
2022/04/06 10:39:53;;;;;;;13.57;3.35;;;;;;;10.78;70.98;100088.47;4696962;30;20474;-90
2022/04/06 10:42:30;;;;;;;11.35;3.10;;;;;;;10.85;70.60;100088.06;4697121;30;20064;-88
2022/04/06 10:44:56;;;;;;;8.00;3.13;;;;;;;10.77;71.80;100090.28;4700378;30;20157;-89
2022/04/06 10:47:23;;;;;;;8.23;3.70;;;;;;;10.78;71.27;100086.69;4716540;30;20057;-88
2022/04/06 10:50:07;;;;;;;8.00;3.72;;;;;;;10.78;72.22;100084.03;4701641;30;20117;-89
2022/04/06 10:52:33;;;;;;;6.25;3.40;;;;;;;10.77;71.82;100086.75;4719646;30;20106;-89
2022/04/06 10:55:07;;;;;;;9.23;4.18;;;;;;;10.77;72.46;100086.75;4727893;30;20036;-88
2022/04/06 10:58:02;;;;;;;5.90;2.92;;;;;;;10.79;72.13;100077.81;4714227;30;20044;-88
2022/04/06 11:00:28;;;;;;;7.28;3.03;;;;;;;10.83;71.24;100074.06;4714038;30;20041;-88
2022/04/06 11:02:58;;;;;;;6.85;2.55;;;;;;;10.80;71.12;100063.66;4720763;30;20510;-90
2022/04/06 11:05:44;;;;;;;9.40;3.70;;;;;;;10.95;70.87;100070.75;4725008;30;20418;-89
2022/04/06 11:11:31;;;;;;;6.38;2.50;;;;;;;10.96;70.97;100063.69;4712741;30;20231;-88
2022/04/06 11:13:57;;;;;;;5.20;3.05;;;;;;;10.98;70.83;100067.09;4718251;30;20040;-89
2022/04/06 11:16:42;;;;;;;10.90;3.60;;;;;;;10.90;70.43;100056.06;4714252;30;20815;-89
2022/04/06 11:19:08;;;;;;;4.63;3.10;;;;;;;11.01;70.54;100051.06;4714824;30;20526;-88
2022/04/06 11:21:34;;;;;;;7.15;2.85;;;;;;;11.10;70.37;100060.31;4696671;30;20068;-89
2022/04/06 11:23:59;;;;;;;4.43;2.05;;;;;;;11.10;70.18;100052.38;4735935;30;20040;-87
2022/04/06 11:26:26;;;;;;;5.43;2.80;;;;;;;11.09;69.20;100053.28;4715353;30;20044;-88
2022/04/06 11:28:58;;;;;;;7.43;2.67;;;;;;;11.16;68.82;100065.25;4722750;30;20602;-88
2022/04/06 11:31:24;;;;;;;8.70;2.67;;;;;;;11.11;68.44;100046.97;4711017;30;20411;-88
2022/04/06 11:33:50;;;;;;;7.57;2.45;;;;;;;11.12;68.66;100042.53;4705556;30;20436;-89